createdAt,value
2017-05-21T00:00:25.115Z,3.00
2017-05-21T00:02:53.319Z,3.00
2017-05-21T00:05:21.535Z,3.14
2017-05-21T00:07:49.749Z,3.52
2017-05-21T00:10:17.956Z,3.18
2017-05-21T00:12:46.159Z,2.70
2017-05-21T00:15:14.383Z,3.00
2017-05-21T00:17:42.587Z,2.40
2017-05-21T00:20:10.831Z,2.94
2017-05-21T00:22:39.027Z,2.60
2017-05-21T00:25:07.239Z,2.48
2017-05-21T00:27:35.448Z,2.42
2017-05-21T00:30:03.668Z,2.60
2017-05-21T00:32:31.952Z,2.00
2017-05-21T00:35:00.162Z,3.20
2017-05-21T00:37:28.367Z,2.82
2017-05-21T00:39:56.907Z,2.98
2017-05-21T00:42:25.121Z,3.18
2017-05-21T00:44:53.336Z,2.98
2017-05-21T00:47:21.550Z,3.40
2017-05-21T00:49:49.759Z,3.92
2017-05-21T00:52:17.979Z,3.82
2017-05-21T00:54:46.178Z,3.46
2017-05-21T00:57:14.391Z,4.00
2017-05-21T00:59:42.594Z,3.02
2017-05-21T01:02:10.811Z,3.22
2017-05-21T01:04:39.019Z,3.28
2017-05-21T01:07:07.231Z,2.94
2017-05-21T01:09:35.448Z,2.36
2017-05-21T01:12:03.667Z,2.40
2017-05-21T01:14:31.916Z,2.68
2017-05-21T01:17:00.139Z,2.44
2017-05-21T01:19:28.355Z,2.84
2017-05-21T01:21:56.647Z,2.64
2017-05-21T01:24:24.860Z,3.00
2017-05-21T01:26:53.094Z,3.14
2017-05-21T01:29:21.300Z,3.16
2017-05-21T01:31:49.571Z,2.60
2017-05-21T01:34:17.776Z,2.78
2017-05-21T01:36:45.990Z,2.42
2017-05-21T01:39:14.201Z,2.50
2017-05-21T01:41:42.415Z,2.96
2017-05-21T01:44:10.619Z,2.22
2017-05-21T01:46:38.826Z,2.78
2017-05-21T01:49:07.039Z,2.74
2017-05-21T01:51:35.243Z,2.78
2017-05-21T01:54:03.463Z,3.14
2017-05-21T01:56:31.680Z,2.32
2017-05-21T01:58:59.896Z,2.36
2017-05-21T02:01:28.111Z,2.30
2017-05-21T02:03:56.419Z,2.30
2017-05-21T02:06:24.629Z,2.40
2017-05-21T02:08:52.843Z,2.66
2017-05-21T02:11:21.043Z,3.28
2017-05-21T02:13:49.315Z,2.64
2017-05-21T02:16:17.522Z,2.60
2017-05-21T02:18:45.737Z,2.50
2017-05-21T02:21:13.944Z,2.32
2017-05-21T02:23:42.169Z,2.62
2017-05-21T02:26:10.379Z,2.22
2017-05-21T02:28:38.602Z,2.04
2017-05-21T02:31:06.806Z,2.44
2017-05-21T02:33:35.024Z,2.64
2017-05-21T02:36:03.292Z,3.40
2017-05-21T02:38:31.510Z,2.72
2017-05-21T02:40:59.715Z,2.58
2017-05-21T02:43:27.939Z,3.60
2017-05-21T02:45:56.147Z,2.60
2017-05-21T02:48:24.364Z,3.28
2017-05-21T02:50:52.564Z,3.02
2017-05-21T02:53:20.827Z,2.34
2017-05-21T02:55:49.086Z,2.48
2017-05-21T02:58:17.364Z,3.20
2017-05-21T03:00:45.565Z,2.94
2017-05-21T03:03:13.775Z,1.90
2017-05-21T03:05:41.987Z,2.78
2017-05-21T03:08:10.188Z,3.08
2017-05-21T03:10:38.410Z,3.50
2017-05-21T03:13:06.615Z,2.46
2017-05-21T03:15:34.835Z,3.02
2017-05-21T03:18:03.044Z,3.06
2017-05-21T03:20:33.248Z,2.62
2017-05-21T03:23:01.453Z,2.64
2017-05-21T03:25:29.662Z,3.66
2017-05-21T03:27:57.886Z,2.86
2017-05-21T03:30:26.253Z,2.80
2017-05-21T03:32:55.068Z,2.90
2017-05-21T03:35:23.279Z,2.76
2017-05-21T03:37:51.487Z,2.98
2017-05-21T03:40:19.699Z,2.20
2017-05-21T03:42:47.903Z,2.32
2017-05-21T03:45:16.128Z,3.12
2017-05-21T03:47:44.331Z,2.92
2017-05-21T03:50:12.562Z,2.74
2017-05-21T03:52:40.767Z,2.58
2017-05-21T03:55:08.991Z,2.10
2017-05-21T03:57:37.227Z,2.38
2017-05-21T04:00:05.410Z,3.16
2017-05-21T04:02:33.611Z,2.50
2017-05-21T04:05:01.851Z,2.40
2017-05-21T04:07:30.055Z,2.02
2017-05-21T04:09:58.271Z,2.18
2017-05-21T04:12:26.487Z,2.38
2017-05-21T04:14:54.699Z,2.30
2017-05-21T04:17:23.023Z,2.48
2017-05-21T04:19:51.299Z,2.20
2017-05-21T04:22:19.510Z,2.46
2017-05-21T04:24:47.723Z,2.10
2017-05-21T04:27:16.025Z,2.74
2017-05-21T04:29:44.227Z,2.64
2017-05-21T04:32:12.438Z,2.46
2017-05-21T04:34:40.647Z,2.14
2017-05-21T04:37:08.867Z,2.18
2017-05-21T04:39:37.103Z,3.08
2017-05-21T04:42:05.327Z,2.38
2017-05-21T04:44:33.531Z,2.48
2017-05-21T04:47:01.747Z,2.50
2017-05-21T04:49:29.948Z,1.82
2017-05-21T04:51:58.160Z,1.90
2017-05-21T04:54:26.359Z,1.92
2017-05-21T04:56:54.623Z,1.80
2017-05-21T04:59:22.822Z,2.04
2017-05-21T05:01:51.047Z,2.56
2017-05-21T05:04:19.256Z,1.80
2017-05-21T05:06:47.531Z,1.90
2017-05-21T05:09:15.819Z,1.34
2017-05-21T05:11:44.075Z,1.64
2017-05-21T05:14:12.357Z,1.64
2017-05-21T05:16:40.579Z,1.82
2017-05-21T05:19:08.787Z,2.28
2017-05-21T05:21:36.996Z,2.00
2017-05-21T05:24:05.225Z,1.64
2017-05-21T05:26:33.449Z,1.40
2017-05-21T05:29:01.669Z,1.74
2017-05-21T05:31:29.970Z,1.70
2017-05-21T05:33:58.196Z,1.42
2017-05-21T05:36:27.248Z,1.30
2017-05-21T05:38:55.490Z,1.36
2017-05-21T05:41:23.695Z,1.68
2017-05-21T05:43:52.315Z,1.54
2017-05-21T05:46:20.532Z,1.50
2017-05-21T05:48:48.753Z,1.18
2017-05-21T05:51:16.959Z,1.38
2017-05-21T05:53:45.189Z,1.68
2017-05-21T05:56:13.402Z,1.46
2017-05-21T05:58:41.619Z,1.20
2017-05-21T06:01:09.836Z,1.42
2017-05-21T06:03:38.055Z,1.40
2017-05-21T06:06:06.262Z,0.90
2017-05-21T06:08:34.482Z,1.50
2017-05-21T06:11:02.699Z,1.72
2017-05-21T06:13:30.920Z,1.36
2017-05-21T06:15:59.131Z,1.30
2017-05-21T06:18:27.350Z,1.30
2017-05-21T06:20:55.571Z,1.40
2017-05-21T06:23:23.787Z,1.24
2017-05-21T06:25:52.007Z,1.08
2017-05-21T06:28:20.221Z,1.16
2017-05-21T06:30:48.440Z,1.20
2017-05-21T06:33:16.656Z,1.30
2017-05-21T06:35:44.878Z,1.86
2017-05-21T06:38:13.093Z,1.30
2017-05-21T06:40:41.311Z,0.96
2017-05-21T06:43:09.530Z,1.40
2017-05-21T06:45:37.752Z,1.90
2017-05-21T06:48:05.963Z,1.28
2017-05-21T06:50:34.187Z,1.34
2017-05-21T06:53:02.396Z,1.00
2017-05-21T06:55:30.622Z,1.30
2017-05-21T06:57:58.842Z,1.32
2017-05-21T07:00:27.060Z,1.10
2017-05-21T07:02:55.275Z,1.20
2017-05-21T07:05:23.491Z,1.20
2017-05-21T07:07:51.707Z,1.20
2017-05-21T07:10:19.927Z,1.20
2017-05-21T07:12:48.154Z,1.30
2017-05-21T07:15:16.379Z,1.54
2017-05-21T07:17:44.599Z,1.10
2017-05-21T07:20:12.849Z,1.40
2017-05-21T07:22:41.063Z,1.14
2017-05-21T07:25:09.289Z,1.50
2017-05-21T07:27:37.507Z,1.10
2017-05-21T07:30:05.721Z,1.08
2017-05-21T07:32:33.948Z,0.94
2017-05-21T07:35:02.163Z,1.02
2017-05-21T07:37:30.399Z,0.92
2017-05-21T07:39:58.603Z,1.40
2017-05-21T07:42:26.831Z,0.90
2017-05-21T07:44:55.052Z,1.00
2017-05-21T07:47:23.272Z,1.02
2017-05-21T07:49:51.491Z,1.20
2017-05-21T07:52:20.828Z,0.92
2017-05-21T07:54:49.052Z,1.02
2017-05-21T07:57:17.274Z,0.80
2017-05-21T07:59:45.489Z,1.16
2017-05-21T08:02:13.724Z,1.22
2017-05-21T08:04:41.950Z,1.28
2017-05-21T08:07:10.155Z,0.90
2017-05-21T08:09:38.378Z,1.02
2017-05-21T08:12:06.586Z,0.86
2017-05-21T08:14:34.811Z,1.16
2017-05-21T08:17:03.036Z,1.12
2017-05-21T08:19:31.252Z,1.16
2017-05-21T08:21:59.472Z,1.10
2017-05-21T08:24:27.692Z,1.48
2017-05-21T08:26:55.903Z,1.58
2017-05-21T08:29:24.128Z,0.98
2017-05-21T08:31:52.344Z,1.06
2017-05-21T08:34:20.566Z,1.00
2017-05-21T08:36:48.779Z,0.90
2017-05-21T08:39:17.002Z,1.10
2017-05-21T08:41:45.211Z,0.86
2017-05-21T08:44:13.437Z,1.30
2017-05-21T08:46:41.658Z,1.28
2017-05-21T08:49:09.931Z,1.20
2017-05-21T08:51:38.152Z,1.08
2017-05-21T08:54:06.372Z,1.14
2017-05-21T08:56:34.593Z,0.90
2017-05-21T08:59:02.904Z,1.08
2017-05-21T09:01:31.155Z,0.90
2017-05-21T09:03:59.372Z,1.24
2017-05-21T09:06:27.593Z,1.10
2017-05-21T09:08:55.802Z,0.84
2017-05-21T09:11:24.025Z,0.80
2017-05-21T09:13:52.238Z,0.78
2017-05-21T09:16:20.463Z,0.78
2017-05-21T09:18:48.678Z,0.80
2017-05-21T09:21:21.568Z,0.88
2017-05-21T09:23:49.779Z,1.48
2017-05-21T09:26:17.999Z,0.90
2017-05-21T09:28:46.210Z,0.84
2017-05-21T09:31:14.427Z,0.94
2017-05-21T09:33:42.645Z,0.80
2017-05-21T09:36:10.871Z,1.02
2017-05-21T09:38:39.086Z,0.98
2017-05-21T09:41:07.310Z,0.66
2017-05-21T09:43:35.519Z,0.50
2017-05-21T09:46:03.743Z,0.70
2017-05-21T09:48:31.957Z,1.00
2017-05-21T09:51:00.179Z,0.62
2017-05-21T09:53:28.411Z,0.74
2017-05-21T09:55:58.644Z,0.78
2017-05-21T09:58:26.869Z,0.80
2017-05-21T10:00:55.079Z,0.72
2017-05-21T10:03:23.303Z,1.00
2017-05-21T10:05:51.515Z,0.98
2017-05-21T10:08:19.748Z,0.90
2017-05-21T10:10:47.963Z,0.90
2017-05-21T10:13:16.190Z,0.88
2017-05-21T10:15:44.409Z,0.72
2017-05-21T10:18:12.631Z,1.00
2017-05-21T10:20:40.836Z,0.92
2017-05-21T10:23:09.091Z,1.00
2017-05-21T10:25:38.227Z,1.00
2017-05-21T10:28:06.446Z,0.70
2017-05-21T10:30:34.679Z,0.78
2017-05-21T10:33:02.884Z,0.60
2017-05-21T10:35:31.099Z,0.66
2017-05-21T10:37:59.332Z,0.70
2017-05-21T10:40:27.544Z,0.70
2017-05-21T10:42:55.763Z,0.82
2017-05-21T10:45:23.975Z,0.90
2017-05-21T10:47:52.191Z,0.78
2017-05-21T10:50:20.402Z,0.80
2017-05-21T10:52:48.663Z,0.80
2017-05-21T10:55:16.875Z,0.90
2017-05-21T10:57:45.087Z,0.70
2017-05-21T11:00:13.308Z,1.30
2017-05-21T11:02:41.527Z,0.70
2017-05-21T11:05:09.747Z,1.00
2017-05-21T11:07:37.971Z,0.74
2017-05-21T11:10:06.190Z,0.86
2017-05-21T11:12:34.455Z,0.78
2017-05-21T11:15:02.675Z,0.60
2017-05-21T11:17:30.906Z,0.86
2017-05-21T11:19:59.138Z,0.60
2017-05-21T11:22:39.749Z,0.74
2017-05-21T11:25:07.980Z,0.70
2017-05-21T11:27:36.194Z,0.82
2017-05-21T11:30:04.423Z,0.68
2017-05-21T11:32:32.679Z,1.02
2017-05-21T11:35:00.900Z,0.70
2017-05-21T11:37:30.135Z,0.90
2017-05-21T11:39:58.457Z,0.92
2017-05-21T11:42:26.724Z,0.88
2017-05-21T11:44:55.023Z,0.80
2017-05-21T11:47:23.231Z,0.60
2017-05-21T11:49:51.477Z,0.70
2017-05-21T11:52:19.783Z,0.70
2017-05-21T11:54:48.023Z,0.80
2017-05-21T11:57:16.261Z,1.16
2017-05-21T11:59:44.496Z,1.00
2017-05-21T12:02:12.749Z,0.64
2017-05-21T12:04:41.609Z,0.80
2017-05-21T12:07:09.852Z,0.78
2017-05-21T12:09:38.107Z,1.20
2017-05-21T12:12:06.358Z,1.02
2017-05-21T12:14:34.595Z,0.90
2017-05-21T12:17:02.837Z,1.26
2017-05-21T12:19:31.085Z,1.52
2017-05-21T12:21:59.328Z,1.60
2017-05-21T12:24:27.572Z,1.34
2017-05-21T12:26:55.059Z,1.10
2017-05-21T12:29:23.288Z,0.98
2017-05-21T12:31:51.525Z,1.22
2017-05-21T12:34:19.778Z,1.02
2017-05-21T12:36:48.020Z,0.94
2017-05-21T12:39:16.253Z,1.18
2017-05-21T12:41:44.496Z,1.10
2017-05-21T12:44:12.752Z,1.20
2017-05-21T12:46:40.999Z,1.30
2017-05-21T12:49:09.212Z,0.98
2017-05-21T12:51:37.459Z,1.18
2017-05-21T12:54:05.724Z,1.18
2017-05-21T12:56:34.013Z,1.10
2017-05-21T12:59:05.203Z,0.84
2017-05-21T13:01:33.551Z,0.86
2017-05-21T13:04:11.884Z,1.00
2017-05-21T13:06:40.269Z,1.00
2017-05-21T13:09:08.538Z,1.00
2017-05-21T13:11:36.023Z,1.18
2017-05-21T13:14:09.439Z,1.06
2017-05-21T13:16:37.720Z,0.90
2017-05-21T13:19:07.344Z,1.22
2017-05-21T13:21:44.438Z,1.00
2017-05-21T13:24:15.840Z,1.02
2017-05-21T13:26:45.734Z,1.32
2017-05-21T13:29:15.637Z,1.22
2017-05-21T13:31:47.921Z,1.20
2017-05-21T13:38:22.838Z,1.40
2017-05-21T13:40:51.090Z,1.26
2017-05-21T13:43:19.455Z,1.14
2017-05-21T13:45:47.757Z,1.10
2017-05-21T13:48:15.261Z,1.30
2017-05-21T13:50:43.501Z,1.00
2017-05-21T13:53:11.728Z,1.42
2017-05-21T13:55:39.947Z,1.04
2017-05-21T13:58:08.187Z,1.10
2017-05-21T14:00:39.209Z,1.10
2017-05-21T14:03:07.435Z,1.00
2017-05-21T14:14:22.960Z,1.32
2017-05-21T14:16:51.215Z,1.40
2017-05-21T14:19:19.476Z,1.00
2017-05-21T14:21:47.705Z,1.00
2017-05-21T14:24:15.979Z,1.20
2017-05-21T14:26:44.215Z,1.20
2017-05-21T14:29:12.483Z,0.96
2017-05-21T14:31:40.731Z,0.88
2017-05-21T14:34:09.003Z,1.20
2017-05-21T14:36:37.247Z,0.96
2017-05-21T14:39:05.508Z,0.84
2017-05-21T14:41:33.751Z,0.98
2017-05-21T14:44:02.033Z,0.94
2017-05-21T14:46:30.617Z,0.94
2017-05-21T14:48:58.875Z,1.02
2017-05-21T14:51:27.156Z,1.14
2017-05-21T14:53:55.431Z,1.12
2017-05-21T14:56:23.692Z,1.08
2017-05-21T14:58:51.931Z,1.00
2017-05-21T15:01:20.167Z,1.16
2017-05-21T15:03:48.400Z,1.32
2017-05-21T15:06:16.640Z,1.18
2017-05-21T15:08:44.859Z,1.08
2017-05-21T15:11:12.361Z,1.08
2017-05-21T15:13:40.597Z,1.14
2017-05-21T15:16:08.840Z,1.20
2017-05-21T15:18:36.328Z,1.00
2017-05-21T15:21:04.565Z,1.00
2017-05-21T15:23:32.816Z,1.46
2017-05-21T15:26:02.098Z,0.96
2017-05-21T15:28:30.516Z,1.22
2017-05-21T15:30:58.752Z,1.16
2017-05-21T15:33:26.984Z,1.10
2017-05-21T15:35:56.216Z,1.08
2017-05-21T15:38:24.449Z,1.06
2017-05-21T15:40:52.685Z,1.28
2017-05-21T15:43:20.908Z,1.70
2017-05-21T15:45:51.600Z,1.00
2017-05-21T15:48:19.836Z,0.92
2017-05-21T15:50:47.338Z,1.18
2017-05-21T15:53:17.068Z,1.14
2017-05-21T15:55:45.401Z,1.00
2017-05-21T15:58:12.966Z,1.10
2017-05-21T16:01:05.525Z,1.46
2017-05-21T16:03:33.792Z,1.90
2017-05-21T16:06:02.004Z,2.06
2017-05-21T16:08:30.223Z,1.82
2017-05-21T16:10:58.434Z,1.24
2017-05-21T16:13:26.661Z,1.62
2017-05-21T16:15:54.879Z,1.10
2017-05-21T16:18:23.104Z,1.26
2017-05-21T16:20:51.320Z,1.50
2017-05-21T16:23:19.548Z,1.40
2017-05-21T16:25:47.759Z,1.18
2017-05-21T16:28:15.995Z,1.34
2017-05-21T16:30:44.220Z,1.10
2017-05-21T16:33:12.653Z,1.36
2017-05-21T16:35:40.867Z,1.20
2017-05-21T16:38:09.087Z,1.32
2017-05-21T16:40:37.307Z,1.30
2017-05-21T16:43:05.535Z,1.54
2017-05-21T16:45:33.743Z,1.30
2017-05-21T16:48:01.972Z,1.12
2017-05-21T16:50:30.196Z,1.56
2017-05-21T16:52:58.495Z,1.50
2017-05-21T16:55:26.712Z,0.92
2017-05-21T16:57:54.932Z,1.48
2017-05-21T17:00:23.152Z,1.38
2017-05-21T17:02:51.400Z,1.56
2017-05-21T17:05:19.612Z,1.44
2017-05-21T17:07:47.067Z,1.30
2017-05-21T17:10:15.303Z,1.08
2017-05-21T17:12:43.515Z,1.46
2017-05-21T17:15:11.747Z,1.52
2017-05-21T17:17:39.959Z,1.70
2017-05-21T17:20:08.185Z,1.10
2017-05-21T17:22:35.628Z,1.56
2017-05-21T17:25:03.861Z,1.22
2017-05-21T17:27:32.084Z,1.34
2017-05-21T17:29:59.544Z,1.50
2017-05-21T17:32:27.764Z,1.02
2017-05-21T17:34:55.988Z,1.42
2017-05-21T17:37:24.196Z,1.40
2017-05-21T17:39:52.447Z,1.44
2017-05-21T17:42:20.734Z,1.46
2017-05-21T17:44:48.956Z,1.40
2017-05-21T17:47:17.184Z,1.44
2017-05-21T17:49:45.399Z,1.50
2017-05-21T17:52:13.619Z,1.60
2017-05-21T17:54:41.859Z,1.40
2017-05-21T17:57:09.412Z,1.40
2017-05-21T17:59:37.658Z,1.58
2017-05-21T18:02:05.903Z,1.38
2017-05-21T18:04:34.120Z,1.52
2017-05-21T18:07:02.339Z,1.32
2017-05-21T18:09:30.559Z,1.38
2017-05-21T18:11:58.801Z,1.64
2017-05-21T18:14:26.992Z,1.90
2017-05-21T18:16:55.603Z,2.00
2017-05-21T18:19:23.824Z,1.36
2017-05-21T18:21:52.052Z,1.70
2017-05-21T18:24:20.266Z,1.92
2017-05-21T18:26:48.499Z,2.06
2017-05-21T18:29:16.725Z,1.62
2017-05-21T18:31:44.955Z,1.76
2017-05-21T18:34:13.156Z,1.62
2017-05-21T18:36:41.383Z,1.80
2017-05-21T18:39:09.606Z,1.60
2017-05-21T18:41:37.829Z,2.36
2017-05-21T18:44:06.038Z,1.80
2017-05-21T18:46:34.263Z,1.96
2017-05-21T18:49:02.485Z,1.66
2017-05-21T18:51:30.714Z,2.62
2017-05-21T18:53:58.934Z,2.22
2017-05-21T18:56:27.135Z,1.88
2017-05-21T18:58:55.369Z,2.20
2017-05-21T19:01:23.584Z,2.20
2017-05-21T19:03:51.808Z,2.10
2017-05-21T19:06:20.031Z,1.86
2017-05-21T19:08:48.260Z,1.94
2017-05-21T19:11:16.497Z,2.36
2017-05-21T19:13:44.722Z,2.46
2017-05-21T19:16:12.939Z,2.52
2017-05-21T19:18:41.162Z,2.82
2017-05-21T19:21:09.371Z,2.30
2017-05-21T19:23:37.601Z,2.52
2017-05-21T19:26:05.828Z,2.34
2017-05-21T19:28:34.057Z,2.10
2017-05-21T19:31:02.280Z,2.40
2017-05-21T19:33:30.500Z,2.62
2017-05-21T19:35:58.726Z,2.94
2017-05-21T19:38:26.955Z,2.42
2017-05-21T19:40:55.164Z,2.42
2017-05-21T19:43:23.376Z,2.68
2017-05-21T19:45:51.608Z,3.12
2017-05-21T19:48:19.831Z,2.46
2017-05-21T19:50:48.051Z,2.78
2017-05-21T19:53:16.264Z,3.00
2017-05-21T19:55:44.486Z,2.28
2017-05-21T19:58:12.699Z,2.62
2017-05-21T20:00:40.930Z,2.32
2017-05-21T20:03:09.139Z,2.38
2017-05-21T20:05:37.368Z,2.48
2017-05-21T20:08:05.571Z,2.80
2017-05-21T20:10:33.787Z,2.64
2017-05-21T20:13:01.999Z,2.58
2017-05-21T20:15:30.227Z,2.46
2017-05-21T20:18:05.103Z,2.38
2017-05-21T20:20:33.331Z,2.86
2017-05-21T20:23:01.547Z,2.70
2017-05-21T20:25:29.771Z,3.06
2017-05-21T20:27:57.981Z,3.38
2017-05-21T20:30:26.227Z,2.48
2017-05-21T20:32:54.439Z,2.60
2017-05-21T20:35:22.660Z,3.14
2017-05-21T20:37:50.862Z,2.62
2017-05-21T20:40:30.019Z,2.74
2017-05-21T20:42:58.246Z,2.68
2017-05-21T20:45:26.501Z,2.78
2017-05-21T20:47:54.682Z,2.88
2017-05-21T20:50:22.887Z,2.90
2017-05-21T20:52:51.108Z,2.98
2017-05-21T20:55:19.319Z,2.82
2017-05-21T20:57:47.545Z,2.98
2017-05-21T21:00:15.775Z,3.20
2017-05-21T21:02:43.990Z,3.20
2017-05-21T21:05:12.194Z,2.58
2017-05-21T21:07:40.421Z,3.18
2017-05-21T21:10:08.636Z,3.14
2017-05-21T21:12:36.873Z,3.00
2017-05-21T21:15:05.082Z,2.64
2017-05-21T21:17:33.308Z,2.68
2017-05-21T21:20:01.534Z,2.64
2017-05-21T21:22:29.744Z,2.86
2017-05-21T21:24:57.975Z,3.16
2017-05-21T21:27:26.199Z,2.90
2017-05-21T21:29:54.415Z,3.24
2017-05-21T21:32:22.628Z,2.76
2017-05-21T21:34:50.862Z,3.14
2017-05-21T21:37:21.007Z,2.74
2017-05-21T21:39:49.244Z,3.34
2017-05-21T21:42:17.455Z,3.14
2017-05-21T21:44:45.675Z,2.62
2017-05-21T21:47:13.895Z,3.08
2017-05-21T21:49:42.112Z,2.94
2017-05-21T21:52:10.327Z,3.00
2017-05-21T21:54:39.642Z,3.36
2017-05-21T21:57:07.868Z,2.58
2017-05-21T21:59:36.084Z,2.90
2017-05-21T22:02:04.311Z,3.22
2017-05-21T22:04:32.522Z,3.10
2017-05-21T22:07:00.735Z,2.98
2017-05-21T22:09:28.939Z,3.42
2017-05-21T22:11:57.160Z,3.10
2017-05-21T22:14:25.372Z,3.22
2017-05-21T22:16:53.595Z,2.86
2017-05-21T22:19:21.815Z,2.98
2017-05-21T22:21:50.044Z,3.22
2017-05-21T22:24:18.259Z,3.00
2017-05-21T22:26:46.471Z,2.86
2017-05-21T22:29:14.675Z,3.30
2017-05-21T22:31:42.914Z,3.00
2017-05-21T22:34:11.120Z,3.22
2017-05-21T22:36:39.339Z,3.16
2017-05-21T22:39:07.555Z,3.42
2017-05-21T22:41:35.787Z,2.64
2017-05-21T22:44:04.007Z,3.06
2017-05-21T22:46:32.222Z,3.38
2017-05-21T22:49:00.442Z,2.78
2017-05-21T22:51:28.658Z,3.00
2017-05-21T22:53:56.884Z,3.26
2017-05-21T22:56:25.098Z,3.50
2017-05-21T22:58:53.320Z,3.20
2017-05-21T23:01:21.543Z,2.94
2017-05-21T23:03:49.768Z,3.26
2017-05-21T23:06:17.976Z,3.10
2017-05-21T23:08:46.195Z,3.42
2017-05-21T23:11:14.407Z,3.20
2017-05-21T23:13:42.628Z,2.94
2017-05-21T23:16:10.855Z,2.98
2017-05-21T23:18:39.082Z,3.52
2017-05-21T23:21:07.284Z,2.80
2017-05-21T23:23:35.504Z,3.22
2017-05-21T23:26:18.724Z,2.74
2017-05-21T23:28:46.936Z,3.04
2017-05-21T23:31:15.159Z,3.32
2017-05-21T23:33:43.379Z,2.82
2017-05-21T23:36:27.276Z,2.90
2017-05-21T23:39:10.185Z,3.10
2017-05-21T23:41:38.408Z,2.96
2017-05-21T23:44:06.628Z,3.12
2017-05-21T23:46:34.840Z,3.56
2017-05-21T23:49:03.046Z,3.30
2017-05-21T23:51:31.286Z,3.30
2017-05-21T23:53:59.487Z,3.84
2017-05-21T23:56:27.720Z,3.46
2017-05-21T23:58:55.923Z,4.36
